N.dadayli — TCCW7 — position and weather

sailwx.info

Track history (hours):
 
Tides and Currents Weather Stations Pressure Air Temp Water Temp Dewpoint Dewpoint Depression Visibility Wind Speed Wind Dir Waves Ship Positions

N.dadayli

Last reported at 2015-May-22 20:05 UTC. Time now 2015-May-23 05:50 UTC.
Position N 40°25' W 009°50'.

Length 101 m; draft 7.9 m.

Type: Ship. MMSI: 271000768.

Date/timePositionNaut miles runAvg speedWind from/ knotsBaromVisibWave heightAir tempDewpointWater temp
2015-May-22 20:05N 40°25' W 009°50'11 7.4
2015-May-22 18:33N 40°14' W 009°50'8 8.0
2015-May-22 17:33N 40°06' W 009°50'8 8.0
2015-May-22 16:32N 39°58' W 009°51'8 8.2
2015-May-22 15:33N 39°50' W 009°51'8 8.0
2015-May-22 14:33N 39°42' W 009°51'8 8.0
2015-May-22 13:33N 39°33' W 009°51'8 8.1
2015-May-22 12:33N 39°25' W 009°51'8 7.9
2015-May-22 11:33N 39°18' W 009°51'8 7.7
2015-May-22 10:33N 39°10' W 009°51'7 7.4
2015-May-22 09:33N 39°03' W 009°51'7 7.4
2015-May-22 08:33N 38°55' W 009°51'8 7.6
2015-May-22 07:33N 38°48' W 009°51'7 7.4
2015-May-22 06:33N 38°40' W 009°51'8 7.5
2015-May-22 05:33N 38°33' W 009°48'8 8.1
2015-May-22 04:33N 38°25' W 009°46'8 8.2
2015-May-22 03:33N 38°17' W 009°43'8 8.2
2015-May-22 02:33N 38°09' W 009°41'9 8.6
2015-May-22 01:33N 38°01' W 009°39'8 8.4
2015-May-22 00:33N 37°52' W 009°36'9 8.8
2015-May-21 23:33N 37°44' W 009°34'9 8.5
2015-May-21 22:33N 37°36' W 009°31'8 8.0
2015-May-21 21:32N 37°28' W 009°29'8 7.9
2015-May-21 20:33N 37°20' W 009°27'8 7.8
2015-May-21 19:33N 37°13' W 009°24'8 8.1
2015-May-21 18:33N 37°05' W 009°22'9 8.9
2015-May-21 17:33N 36°56' W 009°20'9 8.9
2015-May-21 16:33N 36°49' W 009°13'9 9.2
2015-May-21 15:32N 36°43' W 009°04'9 9.6
2015-May-21 14:33N 36°40' W 008°53'10 9.7
2015-May-21 13:33N 36°37' W 008°41'15911.3
2015-May-20 23:32N 35°59' W 005°30'8 8.4
2015-May-20 22:33N 36°02' W 005°20'45310.9
2015-May-19 05:14N 37°41' E 003°51'811.3
2015-May-19 04:32N 37°41' E 004°01'450 9.9
2015-May-17 07:05N 36°41' E 013°22'27 9.9
2015-May-17 04:21N 36°35' E 013°55'8 9.9
2015-May-17 03:33N 36°33' E 014°04'10 9.9
2015-May-17 02:33N 36°30' E 014°16'1010.1
2015-May-17 01:34N 36°28' E 014°28'10 9.9
2015-May-17 00:32N 36°26' E 014°40'13210.9
2015-May-16 12:24N 36°24' E 017°25'  
Track history (hours):
 
Tides and Currents Weather Stations Pressure Air Temp Water Temp Dewpoint Dewpoint Depression Visibility Wind Speed Wind Dir Waves Ship Positions

N.dadayli

Last reported at 2015-May-22 20:05 UTC. Time now 2015-May-23 05:50 UTC.
Position N 40°25' W 009°50'.

Length 101 m; draft 7.9 m.

Type: Ship. MMSI: 271000768.

Date/timePositionNaut miles runAvg speedWind from/ knotsBaromVisibWave heightAir tempDewpointWater temp
2015-May-22 20:05N 40°25' W 009°50'11 7.4
2015-May-22 18:33N 40°14' W 009°50'8 8.0
2015-May-22 17:33N 40°06' W 009°50'8 8.0
2015-May-22 16:32N 39°58' W 009°51'8 8.2
2015-May-22 15:33N 39°50' W 009°51'8 8.0
2015-May-22 14:33N 39°42' W 009°51'8 8.0
2015-May-22 13:33N 39°33' W 009°51'8 8.1
2015-May-22 12:33N 39°25' W 009°51'8 7.9
2015-May-22 11:33N 39°18' W 009°51'8 7.7
2015-May-22 10:33N 39°10' W 009°51'7 7.4
2015-May-22 09:33N 39°03' W 009°51'7 7.4
2015-May-22 08:33N 38°55' W 009°51'8 7.6
2015-May-22 07:33N 38°48' W 009°51'7 7.4
2015-May-22 06:33N 38°40' W 009°51'8 7.5
2015-May-22 05:33N 38°33' W 009°48'8 8.1
2015-May-22 04:33N 38°25' W 009°46'8 8.2
2015-May-22 03:33N 38°17' W 009°43'8 8.2
2015-May-22 02:33N 38°09' W 009°41'9 8.6
2015-May-22 01:33N 38°01' W 009°39'8 8.4
2015-May-22 00:33N 37°52' W 009°36'9 8.8
2015-May-21 23:33N 37°44' W 009°34'9 8.5
2015-May-21 22:33N 37°36' W 009°31'8 8.0
2015-May-21 21:32N 37°28' W 009°29'8 7.9
2015-May-21 20:33N 37°20' W 009°27'8 7.8
2015-May-21 19:33N 37°13' W 009°24'8 8.1
2015-May-21 18:33N 37°05' W 009°22'9 8.9
2015-May-21 17:33N 36°56' W 009°20'9 8.9
2015-May-21 16:33N 36°49' W 009°13'9 9.2
2015-May-21 15:32N 36°43' W 009°04'9 9.6
2015-May-21 14:33N 36°40' W 008°53'10 9.7
2015-May-21 13:33N 36°37' W 008°41'15911.3
2015-May-20 23:32N 35°59' W 005°30'8 8.4
2015-May-20 22:33N 36°02' W 005°20'45310.9
2015-May-19 05:14N 37°41' E 003°51'811.3
2015-May-19 04:32N 37°41' E 004°01'450 9.9
2015-May-17 07:05N 36°41' E 013°22'27 9.9
2015-May-17 04:21N 36°35' E 013°55'8 9.9
2015-May-17 03:33N 36°33' E 014°04'10 9.9
2015-May-17 02:33N 36°30' E 014°16'1010.1
2015-May-17 01:34N 36°28' E 014°28'10 9.9
2015-May-17 00:32N 36°26' E 014°40'13210.9
2015-May-16 12:24N 36°24' E 017°25'  

Dump ship's entire track history